sensor_id;sensor_type;location;lat;lon;timestamp;P1;durP1;ratioP1;P2;durP2;ratioP2
69744;SDS011;57015;50.120;-5.168;2023-07-13T00:00:37;10.80;;;1.33;;
69744;SDS011;57015;50.120;-5.168;2023-07-13T00:03:03;7.23;;;0.70;;
69744;SDS011;57015;50.120;-5.168;2023-07-13T00:05:29;5.25;;;0.93;;
69744;SDS011;57015;50.120;-5.168;2023-07-13T00:07:55;7.65;;;0.77;;
69744;SDS011;57015;50.120;-5.168;2023-07-13T00:10:21;5.70;;;0.70;;
69744;SDS011;57015;50.120;-5.168;2023-07-13T00:12:47;8.43;;;1.27;;
69744;SDS011;57015;50.120;-5.168;2023-07-13T00:15:15;7.93;;;1.17;;
69744;SDS011;57015;50.120;-5.168;2023-07-13T00:17:42;6.25;;;0.70;;
69744;SDS011;57015;50.120;-5.168;2023-07-13T00:20:10;5.30;;;0.80;;
69744;SDS011;57015;50.120;-5.168;2023-07-13T00:22:36;4.95;;;0.75;;
69744;SDS011;57015;50.120;-5.168;2023-07-13T00:25:01;6.93;;;0.93;;
69744;SDS011;57015;50.120;-5.168;2023-07-13T00:27:27;5.93;;;0.68;;
69744;SDS011;57015;50.120;-5.168;2023-07-13T00:29:54;7.32;;;1.00;;
69744;SDS011;57015;50.120;-5.168;2023-07-13T00:32:20;7.57;;;0.90;;
69744;SDS011;57015;50.120;-5.168;2023-07-13T00:34:46;5.47;;;0.67;;
69744;SDS011;57015;50.120;-5.168;2023-07-13T00:37:12;6.88;;;1.23;;
69744;SDS011;57015;50.120;-5.168;2023-07-13T00:39:37;9.20;;;1.00;;
69744;SDS011;57015;50.120;-5.168;2023-07-13T00:42:04;8.27;;;1.00;;
69744;SDS011;57015;50.120;-5.168;2023-07-13T00:44:29;3.67;;;0.90;;
69744;SDS011;57015;50.120;-5.168;2023-07-13T00:46:55;4.00;;;0.68;;
69744;SDS011;57015;50.120;-5.168;2023-07-13T00:49:22;6.10;;;0.60;;
69744;SDS011;57015;50.120;-5.168;2023-07-13T00:51:50;6.05;;;0.80;;
69744;SDS011;57015;50.120;-5.168;2023-07-13T00:54:38;11.63;;;1.02;;
69744;SDS011;57015;50.120;-5.168;2023-07-13T00:57:05;10.70;;;1.35;;
69744;SDS011;57015;50.120;-5.168;2023-07-13T00:59:33;9.43;;;1.00;;
69744;SDS011;57015;50.120;-5.168;2023-07-13T01:01:59;8.23;;;1.10;;
69744;SDS011;57015;50.120;-5.168;2023-07-13T01:04:25;5.90;;;0.80;;
69744;SDS011;57015;50.120;-5.168;2023-07-13T01:06:51;5.17;;;1.13;;
69744;SDS011;57015;50.120;-5.168;2023-07-13T01:09:16;2.97;;;0.43;;
69744;SDS011;57015;50.120;-5.168;2023-07-13T01:11:43;6.65;;;0.50;;
69744;SDS011;57015;50.120;-5.168;2023-07-13T01:14:10;7.80;;;1.05;;
69744;SDS011;57015;50.120;-5.168;2023-07-13T01:16:36;4.40;;;0.90;;
69744;SDS011;57015;50.120;-5.168;2023-07-13T01:19:03;8.30;;;1.23;;
69744;SDS011;57015;50.120;-5.168;2023-07-13T01:21:36;7.95;;;0.75;;
69744;SDS011;57015;50.120;-5.168;2023-07-13T01:24:03;6.18;;;1.20;;
69744;SDS011;57015;50.120;-5.168;2023-07-13T01:26:28;5.00;;;0.70;;
69744;SDS011;57015;50.120;-5.168;2023-07-13T01:28:55;4.53;;;0.80;;
69744;SDS011;57015;50.120;-5.168;2023-07-13T01:31:21;7.07;;;0.90;;
69744;SDS011;57015;50.120;-5.168;2023-07-13T01:33:46;5.38;;;0.80;;
69744;SDS011;57015;50.120;-5.168;2023-07-13T01:36:12;2.20;;;0.70;;
69744;SDS011;57015;50.120;-5.168;2023-07-13T01:38:38;3.50;;;0.82;;
69744;SDS011;57015;50.120;-5.168;2023-07-13T01:41:04;7.70;;;1.03;;
69744;SDS011;57015;50.120;-5.168;2023-07-13T01:43:29;6.13;;;0.93;;
69744;SDS011;57015;50.120;-5.168;2023-07-13T01:45:54;5.77;;;0.90;;
69744;SDS011;57015;50.120;-5.168;2023-07-13T01:48:20;5.07;;;0.70;;
69744;SDS011;57015;50.120;-5.168;2023-07-13T01:50:46;4.75;;;0.90;;
69744;SDS011;57015;50.120;-5.168;2023-07-13T01:53:12;4.47;;;0.70;;
69744;SDS011;57015;50.120;-5.168;2023-07-13T01:55:38;3.38;;;0.73;;
69744;SDS011;57015;50.120;-5.168;2023-07-13T01:58:04;4.10;;;1.17;;
69744;SDS011;57015;50.120;-5.168;2023-07-13T02:00:29;5.00;;;0.82;;
69744;SDS011;57015;50.120;-5.168;2023-07-13T02:02:55;4.27;;;0.63;;
69744;SDS011;57015;50.120;-5.168;2023-07-13T02:05:20;6.25;;;1.10;;
69744;SDS011;57015;50.120;-5.168;2023-07-13T02:07:46;4.73;;;0.80;;
69744;SDS011;57015;50.120;-5.168;2023-07-13T02:10:12;7.47;;;1.08;;
69744;SDS011;57015;50.120;-5.168;2023-07-13T02:12:38;7.20;;;0.80;;
69744;SDS011;57015;50.120;-5.168;2023-07-13T02:15:03;3.35;;;0.73;;
69744;SDS011;57015;50.120;-5.168;2023-07-13T02:17:29;5.53;;;0.98;;
69744;SDS011;57015;50.120;-5.168;2023-07-13T02:19:55;5.40;;;1.13;;
69744;SDS011;57015;50.120;-5.168;2023-07-13T02:22:20;4.30;;;1.35;;
69744;SDS011;57015;50.120;-5.168;2023-07-13T02:24:46;3.97;;;0.70;;
69744;SDS011;57015;50.120;-5.168;2023-07-13T02:27:11;3.00;;;0.70;;
69744;SDS011;57015;50.120;-5.168;2023-07-13T02:29:37;6.77;;;1.50;;
69744;SDS011;57015;50.120;-5.168;2023-07-13T02:32:02;6.10;;;0.70;;
69744;SDS011;57015;50.120;-5.168;2023-07-13T02:34:28;5.80;;;1.08;;
69744;SDS011;57015;50.120;-5.168;2023-07-13T02:36:53;6.23;;;0.77;;
69744;SDS011;57015;50.120;-5.168;2023-07-13T02:39:18;4.03;;;0.70;;
69744;SDS011;57015;50.120;-5.168;2023-07-13T02:41:44;3.97;;;0.95;;
69744;SDS011;57015;50.120;-5.168;2023-07-13T02:44:09;4.90;;;1.13;;
69744;SDS011;57015;50.120;-5.168;2023-07-13T02:46:38;5.63;;;0.90;;
69744;SDS011;57015;50.120;-5.168;2023-07-13T02:49:03;4.28;;;0.85;;
69744;SDS011;57015;50.120;-5.168;2023-07-13T02:51:29;4.17;;;0.70;;
69744;SDS011;57015;50.120;-5.168;2023-07-13T02:53:55;3.43;;;0.83;;
69744;SDS011;57015;50.120;-5.168;2023-07-13T02:56:24;4.60;;;0.80;;
69744;SDS011;57015;50.120;-5.168;2023-07-13T02:58:53;5.40;;;0.70;;
69744;SDS011;57015;50.120;-5.168;2023-07-13T03:01:19;4.38;;;1.25;;
69744;SDS011;57015;50.120;-5.168;2023-07-13T03:03:45;4.90;;;1.02;;
69744;SDS011;57015;50.120;-5.168;2023-07-13T03:06:11;5.87;;;1.13;;
69744;SDS011;57015;50.120;-5.168;2023-07-13T03:08:37;4.78;;;1.00;;
69744;SDS011;57015;50.120;-5.168;2023-07-13T03:11:06;3.50;;;0.60;;
69744;SDS011;57015;50.120;-5.168;2023-07-13T03:13:33;3.25;;;0.93;;
69744;SDS011;57015;50.120;-5.168;2023-07-13T03:15:59;6.32;;;0.93;;
69744;SDS011;57015;50.120;-5.168;2023-07-13T03:18:26;4.33;;;1.30;;
69744;SDS011;57015;50.120;-5.168;2023-07-13T03:20:52;5.50;;;1.23;;
69744;SDS011;57015;50.120;-5.168;2023-07-13T03:23:18;5.80;;;1.02;;
69744;SDS011;57015;50.120;-5.168;2023-07-13T03:25:44;7.72;;;1.20;;
69744;SDS011;57015;50.120;-5.168;2023-07-13T03:28:10;4.43;;;1.25;;
69744;SDS011;57015;50.120;-5.168;2023-07-13T03:30:36;4.50;;;1.48;;
69744;SDS011;57015;50.120;-5.168;2023-07-13T03:33:01;5.57;;;1.10;;
69744;SDS011;57015;50.120;-5.168;2023-07-13T03:35:27;4.13;;;1.00;;
69744;SDS011;57015;50.120;-5.168;2023-07-13T03:37:52;3.43;;;0.97;;
69744;SDS011;57015;50.120;-5.168;2023-07-13T03:40:18;7.03;;;1.40;;
69744;SDS011;57015;50.120;-5.168;2023-07-13T03:42:43;3.70;;;1.03;;
69744;SDS011;57015;50.120;-5.168;2023-07-13T03:45:09;4.00;;;0.97;;
69744;SDS011;57015;50.120;-5.168;2023-07-13T03:47:34;5.77;;;1.20;;
69744;SDS011;57015;50.120;-5.168;2023-07-13T03:49:59;4.03;;;1.05;;
69744;SDS011;57015;50.120;-5.168;2023-07-13T03:52:25;4.47;;;1.20;;
69744;SDS011;57015;50.120;-5.168;2023-07-13T03:54:50;3.67;;;1.10;;
69744;SDS011;57015;50.120;-5.168;2023-07-13T03:57:15;4.40;;;1.20;;
69744;SDS011;57015;50.120;-5.168;2023-07-13T03:59:41;4.10;;;1.20;;
69744;SDS011;57015;50.120;-5.168;2023-07-13T04:02:06;5.10;;;1.07;;
69744;SDS011;57015;50.120;-5.168;2023-07-13T04:04:32;3.50;;;0.98;;
69744;SDS011;57015;50.120;-5.168;2023-07-13T04:06:57;3.13;;;0.82;;
69744;SDS011;57015;50.120;-5.168;2023-07-13T04:09:23;3.27;;;1.00;;
69744;SDS011;57015;50.120;-5.168;2023-07-13T04:11:49;5.75;;;1.15;;
69744;SDS011;57015;50.120;-5.168;2023-07-13T04:14:15;3.40;;;1.30;;
69744;SDS011;57015;50.120;-5.168;2023-07-13T04:16:41;3.35;;;0.90;;
69744;SDS011;57015;50.120;-5.168;2023-07-13T04:19:07;4.47;;;0.90;;
69744;SDS011;57015;50.120;-5.168;2023-07-13T04:21:33;6.45;;;1.20;;
69744;SDS011;57015;50.120;-5.168;2023-07-13T04:23:58;8.27;;;1.57;;
69744;SDS011;57015;50.120;-5.168;2023-07-13T04:26:24;3.67;;;1.00;;
69744;SDS011;57015;50.120;-5.168;2023-07-13T04:28:50;5.30;;;1.30;;
69744;SDS011;57015;50.120;-5.168;2023-07-13T04:31:15;5.00;;;1.10;;
69744;SDS011;57015;50.120;-5.168;2023-07-13T04:33:41;6.07;;;1.37;;
69744;SDS011;57015;50.120;-5.168;2023-07-13T04:36:08;4.20;;;1.10;;
69744;SDS011;57015;50.120;-5.168;2023-07-13T04:38:34;5.70;;;1.42;;
69744;SDS011;57015;50.120;-5.168;2023-07-13T04:41:01;5.43;;;1.40;;
69744;SDS011;57015;50.120;-5.168;2023-07-13T04:43:28;6.32;;;1.20;;
69744;SDS011;57015;50.120;-5.168;2023-07-13T04:45:54;7.15;;;1.27;;
69744;SDS011;57015;50.120;-5.168;2023-07-13T04:48:19;4.80;;;1.67;;
69744;SDS011;57015;50.120;-5.168;2023-07-13T04:50:45;5.37;;;1.30;;
69744;SDS011;57015;50.120;-5.168;2023-07-13T04:53:11;4.28;;;0.98;;
69744;SDS011;57015;50.120;-5.168;2023-07-13T04:55:37;5.13;;;1.88;;
69744;SDS011;57015;50.120;-5.168;2023-07-13T04:58:02;5.72;;;1.45;;
69744;SDS011;57015;50.120;-5.168;2023-07-13T05:00:28;9.03;;;1.57;;
69744;SDS011;57015;50.120;-5.168;2023-07-13T05:02:55;4.38;;;1.27;;
69744;SDS011;57015;50.120;-5.168;2023-07-13T05:05:21;4.28;;;1.10;;
69744;SDS011;57015;50.120;-5.168;2023-07-13T05:07:46;6.47;;;1.63;;
69744;SDS011;57015;50.120;-5.168;2023-07-13T05:10:12;7.70;;;1.30;;
69744;SDS011;57015;50.120;-5.168;2023-07-13T05:12:37;4.07;;;1.27;;
69744;SDS011;57015;50.120;-5.168;2023-07-13T05:15:03;5.87;;;1.30;;
69744;SDS011;57015;50.120;-5.168;2023-07-13T05:17:28;4.43;;;1.45;;
69744;SDS011;57015;50.120;-5.168;2023-07-13T05:19:54;9.90;;;1.40;;
69744;SDS011;57015;50.120;-5.168;2023-07-13T05:22:19;5.33;;;1.10;;
69744;SDS011;57015;50.120;-5.168;2023-07-13T05:24:45;10.10;;;1.47;;
69744;SDS011;57015;50.120;-5.168;2023-07-13T05:27:10;8.60;;;1.30;;
69744;SDS011;57015;50.120;-5.168;2023-07-13T05:29:36;6.55;;;1.42;;
69744;SDS011;57015;50.120;-5.168;2023-07-13T05:32:01;3.90;;;1.53;;
69744;SDS011;57015;50.120;-5.168;2023-07-13T05:34:27;5.63;;;1.47;;
69744;SDS011;57015;50.120;-5.168;2023-07-13T05:36:52;7.90;;;2.00;;
69744;SDS011;57015;50.120;-5.168;2023-07-13T05:39:18;7.43;;;1.60;;
69744;SDS011;57015;50.120;-5.168;2023-07-13T05:41:44;9.23;;;2.23;;
69744;SDS011;57015;50.120;-5.168;2023-07-13T05:44:09;10.27;;;2.05;;
69744;SDS011;57015;50.120;-5.168;2023-07-13T05:46:34;9.73;;;2.37;;
69744;SDS011;57015;50.120;-5.168;2023-07-13T05:49:00;8.13;;;2.17;;
69744;SDS011;57015;50.120;-5.168;2023-07-13T05:51:25;9.47;;;1.90;;
69744;SDS011;57015;50.120;-5.168;2023-07-13T05:53:51;7.03;;;1.83;;
69744;SDS011;57015;50.120;-5.168;2023-07-13T05:56:16;7.97;;;1.83;;
69744;SDS011;57015;50.120;-5.168;2023-07-13T05:58:41;9.30;;;2.10;;
69744;SDS011;57015;50.120;-5.168;2023-07-13T06:01:09;9.55;;;2.08;;
69744;SDS011;57015;50.120;-5.168;2023-07-13T06:03:35;6.53;;;1.90;;
69744;SDS011;57015;50.120;-5.168;2023-07-13T06:06:03;7.97;;;2.13;;
69744;SDS011;57015;50.120;-5.168;2023-07-13T06:08:29;8.10;;;1.70;;
69744;SDS011;57015;50.120;-5.168;2023-07-13T06:10:54;8.07;;;1.90;;
69744;SDS011;57015;50.120;-5.168;2023-07-13T06:13:23;7.68;;;1.50;;
69744;SDS011;57015;50.120;-5.168;2023-07-13T06:15:49;9.13;;;1.75;;
69744;SDS011;57015;50.120;-5.168;2023-07-13T06:18:15;8.88;;;1.70;;
69744;SDS011;57015;50.120;-5.168;2023-07-13T06:20:40;6.23;;;1.60;;
69744;SDS011;57015;50.120;-5.168;2023-07-13T06:23:06;6.17;;;1.60;;
69744;SDS011;57015;50.120;-5.168;2023-07-13T06:25:31;7.55;;;1.08;;
69744;SDS011;57015;50.120;-5.168;2023-07-13T06:27:56;6.45;;;0.98;;
69744;SDS011;57015;50.120;-5.168;2023-07-13T06:30:22;7.30;;;1.53;;
69744;SDS011;57015;50.120;-5.168;2023-07-13T06:32:47;5.97;;;1.67;;
69744;SDS011;57015;50.120;-5.168;2023-07-13T06:35:13;7.57;;;1.40;;
69744;SDS011;57015;50.120;-5.168;2023-07-13T06:37:38;5.07;;;1.40;;
69744;SDS011;57015;50.120;-5.168;2023-07-13T06:40:04;4.88;;;1.52;;
69744;SDS011;57015;50.120;-5.168;2023-07-13T06:42:29;4.90;;;1.10;;
69744;SDS011;57015;50.120;-5.168;2023-07-13T06:44:55;5.10;;;1.45;;
69744;SDS011;57015;50.120;-5.168;2023-07-13T06:47:20;2.70;;;1.10;;
69744;SDS011;57015;50.120;-5.168;2023-07-13T06:49:46;4.30;;;1.20;;
69744;SDS011;57015;50.120;-5.168;2023-07-13T06:52:11;3.50;;;1.00;;
69744;SDS011;57015;50.120;-5.168;2023-07-13T06:54:36;5.70;;;1.00;;
69744;SDS011;57015;50.120;-5.168;2023-07-13T06:57:02;2.33;;;0.70;;
69744;SDS011;57015;50.120;-5.168;2023-07-13T06:59:27;5.57;;;0.77;;
69744;SDS011;57015;50.120;-5.168;2023-07-13T07:01:53;3.77;;;1.10;;
69744;SDS011;57015;50.120;-5.168;2023-07-13T07:04:18;5.07;;;0.90;;
69744;SDS011;57015;50.120;-5.168;2023-07-13T07:06:43;8.90;;;0.70;;
69744;SDS011;57015;50.120;-5.168;2023-07-13T07:09:09;7.35;;;0.98;;
69744;SDS011;57015;50.120;-5.168;2023-07-13T07:11:35;5.37;;;1.23;;
69744;SDS011;57015;50.120;-5.168;2023-07-13T07:14:00;4.70;;;0.90;;
69744;SDS011;57015;50.120;-5.168;2023-07-13T07:16:26;5.17;;;0.90;;
69744;SDS011;57015;50.120;-5.168;2023-07-13T07:18:51;3.80;;;0.88;;
69744;SDS011;57015;50.120;-5.168;2023-07-13T07:21:17;4.27;;;0.80;;
69744;SDS011;57015;50.120;-5.168;2023-07-13T07:23:42;5.40;;;1.17;;
69744;SDS011;57015;50.120;-5.168;2023-07-13T07:26:08;2.57;;;0.70;;
69744;SDS011;57015;50.120;-5.168;2023-07-13T07:28:35;5.40;;;1.20;;
69744;SDS011;57015;50.120;-5.168;2023-07-13T07:31:00;5.77;;;1.10;;
69744;SDS011;57015;50.120;-5.168;2023-07-13T07:33:25;5.50;;;1.00;;
69744;SDS011;57015;50.120;-5.168;2023-07-13T07:35:51;3.00;;;0.90;;
69744;SDS011;57015;50.120;-5.168;2023-07-13T07:38:17;4.57;;;1.03;;
69744;SDS011;57015;50.120;-5.168;2023-07-13T07:40:42;4.07;;;0.87;;
69744;SDS011;57015;50.120;-5.168;2023-07-13T07:43:08;5.22;;;1.13;;
69744;SDS011;57015;50.120;-5.168;2023-07-13T07:45:34;6.07;;;0.95;;
69744;SDS011;57015;50.120;-5.168;2023-07-13T07:48:00;5.83;;;1.40;;
69744;SDS011;57015;50.120;-5.168;2023-07-13T07:50:27;5.03;;;1.40;;
69744;SDS011;57015;50.120;-5.168;2023-07-13T07:52:53;4.97;;;1.40;;
69744;SDS011;57015;50.120;-5.168;2023-07-13T07:55:20;5.05;;;1.10;;
69744;SDS011;57015;50.120;-5.168;2023-07-13T07:57:46;5.35;;;1.13;;
69744;SDS011;57015;50.120;-5.168;2023-07-13T08:00:11;5.87;;;1.20;;
69744;SDS011;57015;50.120;-5.168;2023-07-13T08:02:37;5.50;;;1.37;;
69744;SDS011;57015;50.120;-5.168;2023-07-13T08:05:03;4.60;;;0.87;;
69744;SDS011;57015;50.120;-5.168;2023-07-13T08:07:30;4.93;;;1.17;;
69744;SDS011;57015;50.120;-5.168;2023-07-13T08:09:56;8.80;;;1.35;;
69744;SDS011;57015;50.120;-5.168;2023-07-13T08:12:21;5.13;;;1.13;;
69744;SDS011;57015;50.120;-5.168;2023-07-13T08:14:49;5.27;;;1.07;;
69744;SDS011;57015;50.120;-5.168;2023-07-13T08:17:18;5.47;;;1.25;;
69744;SDS011;57015;50.120;-5.168;2023-07-13T08:19:44;3.73;;;1.20;;
69744;SDS011;57015;50.120;-5.168;2023-07-13T08:22:10;4.40;;;1.30;;
69744;SDS011;57015;50.120;-5.168;2023-07-13T08:24:35;4.53;;;1.40;;
69744;SDS011;57015;50.120;-5.168;2023-07-13T08:27:00;6.60;;;1.37;;
69744;SDS011;57015;50.120;-5.168;2023-07-13T08:29:26;8.23;;;1.63;;
69744;SDS011;57015;50.120;-5.168;2023-07-13T08:31:51;4.97;;;1.33;;
69744;SDS011;57015;50.120;-5.168;2023-07-13T08:34:16;6.03;;;1.63;;
69744;SDS011;57015;50.120;-5.168;2023-07-13T08:36:42;6.17;;;1.50;;
69744;SDS011;57015;50.120;-5.168;2023-07-13T08:39:07;6.17;;;1.33;;
69744;SDS011;57015;50.120;-5.168;2023-07-13T08:41:33;7.10;;;1.58;;
69744;SDS011;57015;50.120;-5.168;2023-07-13T08:43:59;7.47;;;1.63;;
69744;SDS011;57015;50.120;-5.168;2023-07-13T08:46:32;4.97;;;1.30;;
69744;SDS011;57015;50.120;-5.168;2023-07-13T08:49:02;7.97;;;1.60;;
69744;SDS011;57015;50.120;-5.168;2023-07-13T08:51:52;4.50;;;1.50;;
69744;SDS011;57015;50.120;-5.168;2023-07-13T08:54:38;5.80;;;1.52;;
69744;SDS011;57015;50.120;-5.168;2023-07-13T08:57:17;6.20;;;1.50;;
69744;SDS011;57015;50.120;-5.168;2023-07-13T08:59:44;7.13;;;1.70;;
69744;SDS011;57015;50.120;-5.168;2023-07-13T09:10:35;6.97;;;1.52;;
69744;SDS011;57015;50.120;-5.168;2023-07-13T09:16:08;6.78;;;1.45;;
69744;SDS011;57015;50.120;-5.168;2023-07-13T09:18:41;3.83;;;1.40;;
69744;SDS011;57015;50.120;-5.168;2023-07-13T09:21:13;6.28;;;1.70;;
69744;SDS011;57015;50.120;-5.168;2023-07-13T09:23:40;5.38;;;1.70;;
69744;SDS011;57015;50.120;-5.168;2023-07-13T09:26:13;6.47;;;1.20;;
69744;SDS011;57015;50.120;-5.168;2023-07-13T09:28:46;5.60;;;1.50;;
69744;SDS011;57015;50.120;-5.168;2023-07-13T09:31:15;6.40;;;1.57;;
69744;SDS011;57015;50.120;-5.168;2023-07-13T09:33:47;7.25;;;2.05;;
69744;SDS011;57015;50.120;-5.168;2023-07-13T09:36:21;6.80;;;1.20;;
69744;SDS011;57015;50.120;-5.168;2023-07-13T09:44:28;11.00;;;1.50;;
69744;SDS011;57015;50.120;-5.168;2023-07-13T09:46:56;3.63;;;1.40;;
69744;SDS011;57015;50.120;-5.168;2023-07-13T09:49:56;7.10;;;1.50;;
69744;SDS011;57015;50.120;-5.168;2023-07-13T09:52:20;3.58;;;1.40;;
69744;SDS011;57015;50.120;-5.168;2023-07-13T09:54:48;8.53;;;1.50;;
69744;SDS011;57015;50.120;-5.168;2023-07-13T09:57:17;8.20;;;1.80;;
69744;SDS011;57015;50.120;-5.168;2023-07-13T09:59:49;6.60;;;2.47;;
69744;SDS011;57015;50.120;-5.168;2023-07-13T10:04:47;5.18;;;1.27;;
69744;SDS011;57015;50.120;-5.168;2023-07-13T10:07:22;5.57;;;1.25;;
69744;SDS011;57015;50.120;-5.168;2023-07-13T10:09:51;5.22;;;1.33;;
69744;SDS011;57015;50.120;-5.168;2023-07-13T10:12:19;8.15;;;1.70;;
69744;SDS011;57015;50.120;-5.168;2023-07-13T10:14:44;7.30;;;1.27;;
69744;SDS011;57015;50.120;-5.168;2023-07-13T10:17:10;5.67;;;1.23;;
69744;SDS011;57015;50.120;-5.168;2023-07-13T10:19:37;9.85;;;2.13;;
69744;SDS011;57015;50.120;-5.168;2023-07-13T10:24:44;6.80;;;1.88;;
69744;SDS011;57015;50.120;-5.168;2023-07-13T10:29:42;4.28;;;1.33;;
69744;SDS011;57015;50.120;-5.168;2023-07-13T10:32:11;5.63;;;1.60;;
69744;SDS011;57015;50.120;-5.168;2023-07-13T10:34:37;7.40;;;1.85;;
69744;SDS011;57015;50.120;-5.168;2023-07-13T10:37:03;6.37;;;1.60;;
69744;SDS011;57015;50.120;-5.168;2023-07-13T10:39:30;6.18;;;1.70;;
69744;SDS011;57015;50.120;-5.168;2023-07-13T10:41:59;7.20;;;1.77;;
69744;SDS011;57015;50.120;-5.168;2023-07-13T10:44:28;5.50;;;1.60;;
69744;SDS011;57015;50.120;-5.168;2023-07-13T10:46:58;5.35;;;1.55;;
69744;SDS011;57015;50.120;-5.168;2023-07-13T10:49:29;4.97;;;1.67;;
69744;SDS011;57015;50.120;-5.168;2023-07-13T10:51:56;9.57;;;1.83;;
69744;SDS011;57015;50.120;-5.168;2023-07-13T10:54:26;8.10;;;1.83;;
69744;SDS011;57015;50.120;-5.168;2023-07-13T10:57:04;12.00;;;2.13;;
69744;SDS011;57015;50.120;-5.168;2023-07-13T10:59:34;6.60;;;1.58;;
69744;SDS011;57015;50.120;-5.168;2023-07-13T11:04:39;9.18;;;1.88;;
69744;SDS011;57015;50.120;-5.168;2023-07-13T11:07:22;9.52;;;2.30;;
69744;SDS011;57015;50.120;-5.168;2023-07-13T11:10:45;8.43;;;1.98;;
69744;SDS011;57015;50.120;-5.168;2023-07-13T11:12:58;4.80;;;1.67;;
69744;SDS011;57015;50.120;-5.168;2023-07-13T11:15:29;6.47;;;1.90;;
69744;SDS011;57015;50.120;-5.168;2023-07-13T11:17:57;7.20;;;2.03;;
69744;SDS011;57015;50.120;-5.168;2023-07-13T11:20:37;8.45;;;2.15;;
69744;SDS011;57015;50.120;-5.168;2023-07-13T11:25:41;7.83;;;2.27;;
69744;SDS011;57015;50.120;-5.168;2023-07-13T11:30:46;7.32;;;1.90;;
69744;SDS011;57015;50.120;-5.168;2023-07-13T11:36:05;7.88;;;2.00;;
69744;SDS011;57015;50.120;-5.168;2023-07-13T11:41:01;7.10;;;2.23;;
69744;SDS011;57015;50.120;-5.168;2023-07-13T11:43:28;6.65;;;2.00;;
69744;SDS011;57015;50.120;-5.168;2023-07-13T11:45:54;7.95;;;1.77;;
69744;SDS011;57015;50.120;-5.168;2023-07-13T11:48:24;8.30;;;2.00;;
69744;SDS011;57015;50.120;-5.168;2023-07-13T11:50:59;7.85;;;1.92;;
69744;SDS011;57015;50.120;-5.168;2023-07-13T11:53:28;8.80;;;2.13;;
69744;SDS011;57015;50.120;-5.168;2023-07-13T11:55:55;9.95;;;2.28;;
69744;SDS011;57015;50.120;-5.168;2023-07-13T11:58:23;10.55;;;1.88;;
69744;SDS011;57015;50.120;-5.168;2023-07-13T12:00:49;8.50;;;1.98;;
69744;SDS011;57015;50.120;-5.168;2023-07-13T12:03:15;16.23;;;2.40;;
69744;SDS011;57015;50.120;-5.168;2023-07-13T12:05:58;10.63;;;2.65;;
69744;SDS011;57015;50.120;-5.168;2023-07-13T12:08:31;9.30;;;1.95;;
69744;SDS011;57015;50.120;-5.168;2023-07-13T12:10:59;9.32;;;1.60;;
69744;SDS011;57015;50.120;-5.168;2023-07-13T12:13:26;7.37;;;1.60;;
69744;SDS011;57015;50.120;-5.168;2023-07-13T12:15:53;5.25;;;1.52;;
69744;SDS011;57015;50.120;-5.168;2023-07-13T12:18:20;7.50;;;1.88;;
69744;SDS011;57015;50.120;-5.168;2023-07-13T12:20:48;6.53;;;2.00;;
69744;SDS011;57015;50.120;-5.168;2023-07-13T12:23:20;8.38;;;1.77;;
69744;SDS011;57015;50.120;-5.168;2023-07-13T12:25:50;6.40;;;1.67;;
69744;SDS011;57015;50.120;-5.168;2023-07-13T12:31:03;8.27;;;2.80;;
69744;SDS011;57015;50.120;-5.168;2023-07-13T12:33:30;10.13;;;2.03;;
69744;SDS011;57015;50.120;-5.168;2023-07-13T12:35:57;8.10;;;2.20;;
69744;SDS011;57015;50.120;-5.168;2023-07-13T12:38:26;9.13;;;1.98;;
69744;SDS011;57015;50.120;-5.168;2023-07-13T12:40:52;9.77;;;2.35;;
69744;SDS011;57015;50.120;-5.168;2023-07-13T12:43:19;8.23;;;2.17;;
69744;SDS011;57015;50.120;-5.168;2023-07-13T12:45:55;7.07;;;1.73;;
69744;SDS011;57015;50.120;-5.168;2023-07-13T12:48:28;10.07;;;2.40;;
69744;SDS011;57015;50.120;-5.168;2023-07-13T12:50:54;5.37;;;1.40;;
69744;SDS011;57015;50.120;-5.168;2023-07-13T12:53:30;6.50;;;1.88;;
69744;SDS011;57015;50.120;-5.168;2023-07-13T12:56:05;7.63;;;2.20;;
69744;SDS011;57015;50.120;-5.168;2023-07-13T13:01:03;11.53;;;1.97;;
69744;SDS011;57015;50.120;-5.168;2023-07-13T13:03:46;6.18;;;1.98;;
69744;SDS011;57015;50.120;-5.168;2023-07-13T13:08:40;9.77;;;2.30;;
69744;SDS011;57015;50.120;-5.168;2023-07-13T13:11:07;8.13;;;1.80;;
69744;SDS011;57015;50.120;-5.168;2023-07-13T13:13:34;7.90;;;1.75;;
69744;SDS011;57015;50.120;-5.168;2023-07-13T13:16:12;7.23;;;2.40;;
69744;SDS011;57015;50.120;-5.168;2023-07-13T13:18:41;6.15;;;1.73;;
69744;SDS011;57015;50.120;-5.168;2023-07-13T13:21:08;6.10;;;1.50;;
69744;SDS011;57015;50.120;-5.168;2023-07-13T13:23:34;6.00;;;1.58;;
69744;SDS011;57015;50.120;-5.168;2023-07-13T13:25:59;7.27;;;1.77;;
69744;SDS011;57015;50.120;-5.168;2023-07-13T13:28:25;5.53;;;1.53;;
69744;SDS011;57015;50.120;-5.168;2023-07-13T13:30:51;7.03;;;1.70;;
69744;SDS011;57015;50.120;-5.168;2023-07-13T13:33:17;7.37;;;1.83;;
69744;SDS011;57015;50.120;-5.168;2023-07-13T13:35:44;6.90;;;1.60;;
69744;SDS011;57015;50.120;-5.168;2023-07-13T13:38:11;10.17;;;2.20;;
69744;SDS011;57015;50.120;-5.168;2023-07-13T13:40:37;6.40;;;1.33;;
69744;SDS011;57015;50.120;-5.168;2023-07-13T13:43:02;6.53;;;1.60;;
69744;SDS011;57015;50.120;-5.168;2023-07-13T13:45:27;5.55;;;1.45;;
69744;SDS011;57015;50.120;-5.168;2023-07-13T13:47:53;8.15;;;1.58;;
69744;SDS011;57015;50.120;-5.168;2023-07-13T13:50:20;5.53;;;1.97;;
69744;SDS011;57015;50.120;-5.168;2023-07-13T13:52:49;5.22;;;1.25;;
69744;SDS011;57015;50.120;-5.168;2023-07-13T13:55:18;7.40;;;1.90;;
69744;SDS011;57015;50.120;-5.168;2023-07-13T13:57:45;10.68;;;1.95;;
69744;SDS011;57015;50.120;-5.168;2023-07-13T14:00:11;9.70;;;1.83;;
69744;SDS011;57015;50.120;-5.168;2023-07-13T14:02:39;9.15;;;1.48;;
69744;SDS011;57015;50.120;-5.168;2023-07-13T14:05:12;10.65;;;1.90;;
69744;SDS011;57015;50.120;-5.168;2023-07-13T14:07:38;8.60;;;1.80;;
69744;SDS011;57015;50.120;-5.168;2023-07-13T14:10:05;6.80;;;1.70;;
69744;SDS011;57015;50.120;-5.168;2023-07-13T14:12:40;3.90;;;1.17;;
69744;SDS011;57015;50.120;-5.168;2023-07-13T14:15:06;6.88;;;1.35;;
69744;SDS011;57015;50.120;-5.168;2023-07-13T14:17:34;8.82;;;1.70;;
69744;SDS011;57015;50.120;-5.168;2023-07-13T14:19:59;7.37;;;1.97;;
69744;SDS011;57015;50.120;-5.168;2023-07-13T14:22:25;6.93;;;1.53;;
69744;SDS011;57015;50.120;-5.168;2023-07-13T14:24:52;6.18;;;1.85;;
69744;SDS011;57015;50.120;-5.168;2023-07-13T14:27:20;8.95;;;2.33;;
69744;SDS011;57015;50.120;-5.168;2023-07-13T14:29:46;7.22;;;2.00;;
69744;SDS011;57015;50.120;-5.168;2023-07-13T14:32:12;9.23;;;2.00;;
69744;SDS011;57015;50.120;-5.168;2023-07-13T14:34:38;6.32;;;2.20;;
69744;SDS011;57015;50.120;-5.168;2023-07-13T14:37:04;5.17;;;1.87;;
69744;SDS011;57015;50.120;-5.168;2023-07-13T14:39:30;6.97;;;2.17;;
69744;SDS011;57015;50.120;-5.168;2023-07-13T14:41:56;4.90;;;1.77;;
69744;SDS011;57015;50.120;-5.168;2023-07-13T14:44:26;8.68;;;2.03;;
69744;SDS011;57015;50.120;-5.168;2023-07-13T14:46:54;6.63;;;1.85;;
69744;SDS011;57015;50.120;-5.168;2023-07-13T14:49:30;6.22;;;1.42;;
69744;SDS011;57015;50.120;-5.168;2023-07-13T14:51:58;5.32;;;1.63;;
69744;SDS011;57015;50.120;-5.168;2023-07-13T14:54:24;6.22;;;1.70;;
69744;SDS011;57015;50.120;-5.168;2023-07-13T14:56:50;6.03;;;1.40;;
69744;SDS011;57015;50.120;-5.168;2023-07-13T14:59:16;6.80;;;1.50;;
69744;SDS011;57015;50.120;-5.168;2023-07-13T15:01:43;9.93;;;1.95;;
69744;SDS011;57015;50.120;-5.168;2023-07-13T15:04:10;7.22;;;1.67;;
69744;SDS011;57015;50.120;-5.168;2023-07-13T15:06:58;6.47;;;1.40;;
69744;SDS011;57015;50.120;-5.168;2023-07-13T15:09:25;9.45;;;2.10;;
69744;SDS011;57015;50.120;-5.168;2023-07-13T15:11:55;6.35;;;1.80;;
69744;SDS011;57015;50.120;-5.168;2023-07-13T15:14:21;6.73;;;1.57;;
69744;SDS011;57015;50.120;-5.168;2023-07-13T15:16:49;8.05;;;1.50;;
69744;SDS011;57015;50.120;-5.168;2023-07-13T15:19:16;4.85;;;1.45;;